createdAt,value
2018-05-09T00:01:14.076Z,2.77
2018-05-09T00:03:41.694Z,2.60
2018-05-09T00:06:10.197Z,2.80
2018-05-09T00:08:37.788Z,2.83
2018-05-09T00:11:05.399Z,2.80
2018-05-09T00:13:33.039Z,2.60
2018-05-09T00:16:01.407Z,2.60
2018-05-09T00:18:29.050Z,3.03
2018-05-09T00:20:56.648Z,2.73
2018-05-09T00:23:24.287Z,3.00
2018-05-09T00:25:51.943Z,2.83
2018-05-09T00:28:19.545Z,3.00
2018-05-09T00:30:47.197Z,3.13
2018-05-09T00:33:14.876Z,2.87
2018-05-09T00:35:43.271Z,3.13
2018-05-09T00:38:10.931Z,3.00
2018-05-09T00:40:38.577Z,3.17
2018-05-09T00:43:07.004Z,2.90
2018-05-09T00:45:34.625Z,2.90
2018-05-09T00:48:03.044Z,3.07
2018-05-09T00:50:30.688Z,2.63
2018-05-09T00:52:58.303Z,3.07
2018-05-09T00:55:25.951Z,2.97
2018-05-09T00:57:53.566Z,3.03
2018-05-09T01:00:21.214Z,2.50
2018-05-09T01:02:48.827Z,3.13
2018-05-09T01:05:16.482Z,3.30
2018-05-09T01:07:44.137Z,3.30
2018-05-09T01:10:11.740Z,3.23
2018-05-09T01:12:39.378Z,3.53
2018-05-09T01:15:07.033Z,3.53
2018-05-09T01:17:35.410Z,3.30
2018-05-09T01:20:03.066Z,3.20
2018-05-09T01:22:30.734Z,3.27
2018-05-09T01:24:58.380Z,2.90
2018-05-09T01:27:26.054Z,2.97
2018-05-09T01:29:53.685Z,3.27
2018-05-09T01:32:21.282Z,3.03
2018-05-09T01:34:48.928Z,3.23
2018-05-09T01:37:16.568Z,3.00
2018-05-09T01:39:44.196Z,3.07
2018-05-09T01:42:12.562Z,2.87
2018-05-09T01:44:40.212Z,3.10
2018-05-09T01:47:07.804Z,2.97
2018-05-09T01:49:36.175Z,2.77
2018-05-09T01:52:04.569Z,3.57
2018-05-09T01:54:33.013Z,3.60
2018-05-09T01:57:00.673Z,3.10
2018-05-09T01:59:28.283Z,2.90
2018-05-09T02:01:55.938Z,2.80
2018-05-09T02:04:23.701Z,3.07
2018-05-09T02:06:51.360Z,2.90
2018-05-09T02:09:18.978Z,3.03
2018-05-09T02:11:46.634Z,2.97
2018-05-09T02:14:14.427Z,3.27
2018-05-09T02:16:50.958Z,3.00
2018-05-09T02:19:18.605Z,2.93
2018-05-09T02:21:46.205Z,3.30
2018-05-09T02:24:13.859Z,3.03
2018-05-09T02:26:41.572Z,3.30
2018-05-09T02:29:09.177Z,3.07
2018-05-09T02:31:36.825Z,3.53
2018-05-09T02:34:04.438Z,3.27
2018-05-09T02:36:32.900Z,3.00
2018-05-09T02:39:00.522Z,3.60
2018-05-09T02:41:28.127Z,3.20
2018-05-09T02:43:55.768Z,3.20
2018-05-09T02:46:23.556Z,3.30
2018-05-09T02:48:53.068Z,3.23
2018-05-09T02:51:21.663Z,3.17
2018-05-09T02:53:49.455Z,3.30
2018-05-09T02:56:17.252Z,2.83
2018-05-09T02:58:44.874Z,3.43
2018-05-09T03:01:12.497Z,3.30
2018-05-09T03:03:40.928Z,3.13
2018-05-09T03:06:08.647Z,3.40
2018-05-09T03:08:37.031Z,3.07
2018-05-09T03:11:04.690Z,3.40
2018-05-09T03:13:32.396Z,3.30
2018-05-09T03:16:00.040Z,3.37
2018-05-09T03:18:27.678Z,3.40
2018-05-09T03:20:56.095Z,3.60
2018-05-09T03:23:23.797Z,3.50
2018-05-09T03:25:51.461Z,3.40
2018-05-09T03:28:19.083Z,3.20
2018-05-09T03:30:46.737Z,3.40
2018-05-09T03:33:14.388Z,3.40
2018-05-09T03:35:42.041Z,3.17
2018-05-09T03:38:09.649Z,3.63
2018-05-09T03:40:37.302Z,3.77
2018-05-09T03:43:04.989Z,3.63
2018-05-09T03:45:32.648Z,3.33
2018-05-09T03:48:00.261Z,3.60
2018-05-09T03:50:27.912Z,3.70
2018-05-09T03:52:55.522Z,3.40
2018-05-09T03:55:23.170Z,3.70
2018-05-09T03:57:50.839Z,3.27
2018-05-09T04:00:18.456Z,3.53
2018-05-09T04:02:57.955Z,3.33
2018-05-09T04:05:37.351Z,3.60
2018-05-09T04:08:16.791Z,3.67
2018-05-09T04:10:44.386Z,3.60
2018-05-09T04:13:12.060Z,3.53
2018-05-09T04:15:40.518Z,3.40
2018-05-09T04:18:08.157Z,3.73
2018-05-09T04:20:35.837Z,3.53
2018-05-09T04:23:03.539Z,4.03
2018-05-09T04:25:31.953Z,3.97
2018-05-09T04:27:59.596Z,4.10
2018-05-09T04:30:27.275Z,3.97
2018-05-09T04:32:54.955Z,3.93
2018-05-09T04:35:22.676Z,3.93
2018-05-09T04:37:50.338Z,6.53
2018-05-09T04:40:17.999Z,8.67
2018-05-09T04:42:46.649Z,6.37
2018-05-09T04:45:14.320Z,5.80
2018-05-09T04:47:41.927Z,5.53
2018-05-09T04:50:09.554Z,5.13
2018-05-09T04:52:38.316Z,5.40
2018-05-09T04:55:06.854Z,4.23
2018-05-09T04:57:34.801Z,4.10
2018-05-09T05:00:02.933Z,3.77
2018-05-09T05:02:31.748Z,3.80
2018-05-09T05:04:59.664Z,3.87
2018-05-09T05:07:27.741Z,3.90
2018-05-09T05:09:55.727Z,4.53
2018-05-09T05:12:23.635Z,4.30
2018-05-09T05:14:51.614Z,3.70
2018-05-09T05:17:19.464Z,4.13
2018-05-09T05:19:48.478Z,4.20
2018-05-09T05:22:16.356Z,4.87
2018-05-09T05:24:44.338Z,4.00
2018-05-09T05:27:12.686Z,4.20
2018-05-09T05:29:40.754Z,4.40
2018-05-09T05:32:08.615Z,4.47
2018-05-09T05:34:37.274Z,4.10
2018-05-09T05:37:05.244Z,3.80
2018-05-09T05:39:33.416Z,3.93
2018-05-09T05:42:01.665Z,4.47
2018-05-09T05:44:29.639Z,3.93
2018-05-09T05:46:57.553Z,3.97
2018-05-09T05:49:26.666Z,3.90
2018-05-09T05:51:54.583Z,3.90
2018-05-09T05:54:22.488Z,3.73
2018-05-09T05:56:50.477Z,3.87
2018-05-09T05:59:18.380Z,4.07
2018-05-09T06:01:46.360Z,4.17
2018-05-09T06:04:15.028Z,4.17
2018-05-09T06:06:44.945Z,3.97
2018-05-09T06:09:12.862Z,3.90
2018-05-09T06:11:40.956Z,4.10
2018-05-09T06:14:08.945Z,3.63
2018-05-09T06:16:36.842Z,4.10
2018-05-09T06:19:04.680Z,3.90
2018-05-09T06:21:32.526Z,3.87
2018-05-09T06:24:00.481Z,4.13
2018-05-09T06:26:28.855Z,3.90
2018-05-09T06:28:56.802Z,3.87
2018-05-09T06:31:24.751Z,3.73
2018-05-09T06:33:52.717Z,3.77
2018-05-09T06:36:21.407Z,3.93
2018-05-09T06:38:50.155Z,3.00
2018-05-09T06:41:18.099Z,2.83
2018-05-09T06:43:46.063Z,3.20
2018-05-09T06:46:13.990Z,3.60
2018-05-09T06:48:42.642Z,3.53
2018-05-09T06:51:10.584Z,3.33
2018-05-09T06:53:38.505Z,3.67
2018-05-09T06:56:07.212Z,3.30
2018-05-09T06:58:35.891Z,3.40
2018-05-09T07:01:04.597Z,3.90
2018-05-09T07:03:32.548Z,3.60
2018-05-09T07:06:00.505Z,3.53
2018-05-09T07:08:29.243Z,3.63
2018-05-09T07:10:57.225Z,2.93
2018-05-09T07:13:25.104Z,2.83
2018-05-09T07:15:52.996Z,2.60
2018-05-09T07:18:20.986Z,3.00
2018-05-09T07:20:48.897Z,2.93
2018-05-09T07:23:17.200Z,3.00
2018-05-09T07:25:45.121Z,2.77
2018-05-09T07:28:13.072Z,2.87
2018-05-09T07:30:41.031Z,3.70
2018-05-09T07:33:12.379Z,3.33
2018-05-09T07:35:40.306Z,2.90
2018-05-09T07:38:08.209Z,3.47
2018-05-09T07:40:36.853Z,3.00
2018-05-09T07:43:04.754Z,2.80
2018-05-09T07:45:32.730Z,2.83
2018-05-09T07:48:00.679Z,2.60
2018-05-09T07:50:29.119Z,2.80
2018-05-09T07:52:57.027Z,2.67
2018-05-09T07:55:24.955Z,2.70
2018-05-09T07:57:52.806Z,2.97
2018-05-09T08:00:20.711Z,2.37
2018-05-09T08:02:48.575Z,2.70
2018-05-09T08:05:16.422Z,2.53
2018-05-09T08:07:44.229Z,2.47
2018-05-09T08:10:12.071Z,2.37
2018-05-09T08:12:39.930Z,2.40
2018-05-09T08:15:07.725Z,2.27
2018-05-09T08:17:35.586Z,2.50
2018-05-09T08:20:03.419Z,2.70
2018-05-09T08:22:31.302Z,2.50
2018-05-09T08:24:59.136Z,2.50
2018-05-09T08:27:27.199Z,2.53
2018-05-09T08:29:55.221Z,2.77
2018-05-09T08:32:23.083Z,2.40
2018-05-09T08:34:51.107Z,2.60
2018-05-09T08:37:18.957Z,2.77
2018-05-09T08:39:47.593Z,2.23
2018-05-09T08:42:15.435Z,2.37
2018-05-09T08:44:43.338Z,2.57
2018-05-09T08:47:11.240Z,2.07
2018-05-09T08:49:39.879Z,2.33
2018-05-09T08:52:07.741Z,2.50
2018-05-09T08:54:35.573Z,2.73
2018-05-09T08:57:03.484Z,2.80
2018-05-09T08:59:31.443Z,2.60
2018-05-09T09:01:59.530Z,2.80
2018-05-09T09:04:27.508Z,2.40
2018-05-09T09:06:55.377Z,3.13
2018-05-09T09:09:23.225Z,2.67
2018-05-09T09:11:51.083Z,2.60
2018-05-09T09:14:18.968Z,2.83
2018-05-09T09:16:46.791Z,3.20
2018-05-09T09:19:14.691Z,2.77
2018-05-09T09:21:42.533Z,3.40
2018-05-09T09:24:10.405Z,2.70
2018-05-09T09:26:38.303Z,2.90
2018-05-09T09:29:06.433Z,2.97
2018-05-09T09:31:34.253Z,2.77
2018-05-09T09:34:02.135Z,2.60
2018-05-09T09:36:29.988Z,2.60
2018-05-09T09:38:57.896Z,3.00
2018-05-09T09:41:25.847Z,2.93
2018-05-09T09:43:53.766Z,3.00
2018-05-09T09:46:21.633Z,3.00
2018-05-09T09:48:49.649Z,3.07
2018-05-09T09:51:18.278Z,2.83
2018-05-09T09:53:48.298Z,2.80
2018-05-09T09:56:16.410Z,2.70
2018-05-09T09:58:44.293Z,3.10
2018-05-09T10:01:12.239Z,2.67
2018-05-09T10:03:40.937Z,2.80
2018-05-09T10:06:09.583Z,3.50
2018-05-09T10:08:37.525Z,2.87
2018-05-09T10:11:05.535Z,3.00
2018-05-09T10:13:33.452Z,2.90
2018-05-09T10:16:01.484Z,2.80
2018-05-09T10:18:30.193Z,3.00
2018-05-09T10:20:58.208Z,2.87
2018-05-09T10:23:32.536Z,2.70
2018-05-09T10:26:00.508Z,3.00
2018-05-09T10:28:28.370Z,3.03
2018-05-09T10:30:56.320Z,2.93
2018-05-09T10:33:26.286Z,2.87
2018-05-09T10:35:55.038Z,3.03
2018-05-09T10:38:23.004Z,2.60
2018-05-09T10:40:50.996Z,2.93
2018-05-09T10:43:19.274Z,3.00
2018-05-09T10:45:47.291Z,2.93
2018-05-09T10:48:16.107Z,3.13
2018-05-09T10:50:44.001Z,2.90
2018-05-09T10:53:12.752Z,2.83
2018-05-09T10:55:40.667Z,2.90
2018-05-09T10:58:08.638Z,2.53
2018-05-09T11:00:36.408Z,2.97
2018-05-09T11:03:05.210Z,2.43
2018-05-09T11:05:33.143Z,2.80
2018-05-09T11:08:01.184Z,2.67
2018-05-09T11:10:29.332Z,2.90
2018-05-09T11:12:57.341Z,2.83
2018-05-09T11:15:25.342Z,2.70
2018-05-09T11:17:53.422Z,2.67
2018-05-09T11:20:21.862Z,2.70
2018-05-09T11:22:50.279Z,2.60
2018-05-09T11:25:19.230Z,2.80
2018-05-09T11:27:47.361Z,2.73
2018-05-09T11:30:16.137Z,2.83
2018-05-09T11:32:44.188Z,2.80
2018-05-09T11:35:12.223Z,3.00
2018-05-09T11:37:40.333Z,2.73
2018-05-09T11:40:09.068Z,2.60
2018-05-09T11:42:37.390Z,2.90
2018-05-09T11:45:06.132Z,2.90
2018-05-09T11:47:34.253Z,2.80
2018-05-09T11:50:02.285Z,2.57
2018-05-09T11:52:30.206Z,2.60
2018-05-09T11:54:58.982Z,2.57
2018-05-09T11:57:28.863Z,2.67
2018-05-09T11:59:56.875Z,2.57
2018-05-09T12:02:25.632Z,2.93
2018-05-09T12:04:53.650Z,2.80
2018-05-09T12:07:26.034Z,2.70
2018-05-09T12:09:53.995Z,2.90
2018-05-09T12:12:22.047Z,3.07
2018-05-09T12:14:49.984Z,2.93
2018-05-09T12:17:17.880Z,2.60
2018-05-09T12:19:47.808Z,3.00
2018-05-09T12:22:15.925Z,2.97
2018-05-09T12:24:43.979Z,2.73
2018-05-09T12:27:12.020Z,2.80
2018-05-09T12:29:40.034Z,2.50
2018-05-09T12:32:08.191Z,2.77
2018-05-09T12:34:36.282Z,2.83
2018-05-09T12:37:04.178Z,2.50
2018-05-09T12:39:32.173Z,2.90
2018-05-09T12:42:00.104Z,2.70
2018-05-09T12:44:28.128Z,2.47
2018-05-09T12:46:56.105Z,3.07
2018-05-09T12:49:24.198Z,2.90
2018-05-09T12:51:52.588Z,2.70
2018-05-09T12:54:20.564Z,2.80
2018-05-09T12:56:48.450Z,2.67
2018-05-09T12:59:17.186Z,2.90
2018-05-09T13:01:45.190Z,2.57
2018-05-09T13:04:13.116Z,2.60
2018-05-09T13:06:40.990Z,2.40
2018-05-09T13:09:09.298Z,2.70
2018-05-09T13:11:37.334Z,2.93
2018-05-09T13:14:05.336Z,2.70
2018-05-09T13:16:33.267Z,2.73
2018-05-09T13:19:01.274Z,3.10
2018-05-09T13:21:29.149Z,2.47
2018-05-09T13:23:57.208Z,2.50
2018-05-09T13:26:25.512Z,2.83
2018-05-09T13:28:57.976Z,2.63
2018-05-09T13:31:25.913Z,2.83
2018-05-09T13:33:53.850Z,2.80
2018-05-09T13:36:21.802Z,2.40
2018-05-09T13:38:49.735Z,2.50
2018-05-09T13:41:17.902Z,2.90
2018-05-09T13:43:46.382Z,2.80
2018-05-09T13:46:14.470Z,3.03
2018-05-09T13:48:42.574Z,3.03
2018-05-09T13:51:19.254Z,3.07
2018-05-09T13:53:47.272Z,2.90
2018-05-09T13:56:15.207Z,2.93
2018-05-09T13:58:43.195Z,2.63
2018-05-09T14:01:11.200Z,2.83
2018-05-09T14:03:39.198Z,3.03
2018-05-09T14:06:07.106Z,3.03
2018-05-09T14:08:37.093Z,3.10
2018-05-09T14:11:05.039Z,2.90
2018-05-09T14:13:33.880Z,2.73
2018-05-09T14:16:01.797Z,3.10
2018-05-09T14:18:29.895Z,3.07
2018-05-09T14:20:57.784Z,2.77
2018-05-09T14:23:25.713Z,2.60
2018-05-09T14:25:53.628Z,2.93
2018-05-09T14:28:21.587Z,2.80
2018-05-09T14:30:49.485Z,2.77
2018-05-09T14:33:17.820Z,2.60
2018-05-09T14:35:45.735Z,2.60
2018-05-09T14:38:13.692Z,2.50
2018-05-09T14:40:41.881Z,3.00
2018-05-09T14:43:09.803Z,2.77
2018-05-09T14:45:38.534Z,2.47
2018-05-09T14:48:08.104Z,2.30
2018-05-09T14:50:36.247Z,2.70
2018-05-09T14:53:04.222Z,2.37
2018-05-09T14:55:32.220Z,2.70
2018-05-09T14:58:00.472Z,2.90
2018-05-09T15:00:28.724Z,2.70
2018-05-09T15:03:03.254Z,2.57
2018-05-09T15:05:31.328Z,2.47
2018-05-09T15:07:59.740Z,2.30
2018-05-09T15:10:28.625Z,2.30
2018-05-09T15:15:36.022Z,2.60
2018-05-09T15:20:41.519Z,2.70
2018-05-09T15:23:11.556Z,2.60
2018-05-09T15:25:41.051Z,2.63
2018-05-09T15:28:14.494Z,2.53
2018-05-09T15:30:43.789Z,2.67
2018-05-09T15:33:12.487Z,2.57
2018-05-09T15:35:41.157Z,2.37
2018-05-09T15:38:09.559Z,2.90
2018-05-09T15:40:37.820Z,2.70
2018-05-09T15:43:10.195Z,2.40
2018-05-09T15:45:38.527Z,2.57
2018-05-09T15:48:07.449Z,2.60
2018-05-09T15:50:35.837Z,2.60
2018-05-09T15:53:03.986Z,2.70
2018-05-09T15:55:33.079Z,2.53
2018-05-09T15:58:01.880Z,2.63
2018-05-09T16:00:31.763Z,2.90
2018-05-09T16:03:00.741Z,2.87
2018-05-09T16:05:28.909Z,2.83
2018-05-09T16:07:57.213Z,2.70
2018-05-09T16:10:26.877Z,2.80
2018-05-09T16:12:55.875Z,2.60
2018-05-09T16:15:23.694Z,2.77
2018-05-09T16:17:52.052Z,2.90
2018-05-09T16:20:20.415Z,2.90
2018-05-09T16:22:48.457Z,2.83
2018-05-09T16:25:16.860Z,3.70
2018-05-09T16:27:44.581Z,5.60
2018-05-09T16:30:13.354Z,4.70
2018-05-09T16:32:41.013Z,5.57
2018-05-09T16:35:08.729Z,6.03
2018-05-09T16:37:36.873Z,14.60
2018-05-09T16:40:04.571Z,7.70
2018-05-09T16:42:32.176Z,32.13
2018-05-09T16:44:59.805Z,14.77
2018-05-09T16:47:27.480Z,33.23
2018-05-09T16:49:55.091Z,22.73
2018-05-09T16:52:23.508Z,26.33
2018-05-09T16:54:51.121Z,20.95
2018-05-09T16:57:18.769Z,16.83
2018-05-09T16:59:46.422Z,10.95
2018-05-09T17:02:14.570Z,9.35
2018-05-09T17:04:42.182Z,9.48
2018-05-09T17:07:10.591Z,6.60
2018-05-09T17:09:38.261Z,6.95
2018-05-09T17:12:05.862Z,5.70
2018-05-09T17:14:34.149Z,12.32
2018-05-09T17:17:03.125Z,5.68
2018-05-09T17:19:31.112Z,8.15
2018-05-09T17:22:16.303Z,6.10
2018-05-09T17:24:44.767Z,5.53
2018-05-09T17:27:12.402Z,4.50
2018-05-09T17:29:40.057Z,5.68
2018-05-09T17:32:07.698Z,11.12
2018-05-09T17:34:35.293Z,8.98
2018-05-09T17:37:03.687Z,7.18
2018-05-09T17:39:32.394Z,10.52
2018-05-09T17:42:01.285Z,10.65
2018-05-09T17:44:29.848Z,5.32
2018-05-09T17:46:57.715Z,7.60
2018-05-09T17:49:25.516Z,8.10
2018-05-09T17:51:54.774Z,7.00
2018-05-09T17:54:22.430Z,4.63
2018-05-09T17:56:50.386Z,4.27
2018-05-09T17:59:19.664Z,5.53
2018-05-09T18:01:47.814Z,6.07
2018-05-09T18:04:16.362Z,5.30
2018-05-09T18:06:44.265Z,7.57
2018-05-09T18:09:27.996Z,4.73
2018-05-09T18:12:29.069Z,5.93
2018-05-09T18:14:59.316Z,5.30
2018-05-09T18:17:26.950Z,4.97
2018-05-09T18:19:54.585Z,4.53
2018-05-09T18:22:28.721Z,5.97
2018-05-09T18:24:57.617Z,6.50
2018-05-09T18:27:25.373Z,6.07
2018-05-09T18:29:53.412Z,6.80
2018-05-09T18:32:21.894Z,6.47
2018-05-09T18:34:50.449Z,5.47
2018-05-09T18:37:18.694Z,5.40
2018-05-09T18:39:46.502Z,4.60
2018-05-09T18:42:18.226Z,4.50
2018-05-09T18:44:46.138Z,5.37
2018-05-09T18:47:13.930Z,4.70
2018-05-09T18:49:41.774Z,4.47
2018-05-09T18:52:10.335Z,4.80
2018-05-09T18:54:38.210Z,4.03
2018-05-09T18:57:06.402Z,4.23
2018-05-09T18:59:34.114Z,4.73
2018-05-09T19:02:01.806Z,4.80
2018-05-09T19:04:29.522Z,4.30
2018-05-09T19:06:57.113Z,4.90
2018-05-09T19:09:24.758Z,4.50
2018-05-09T19:11:52.421Z,5.17
2018-05-09T19:14:20.078Z,4.57
2018-05-09T19:16:47.682Z,4.60
2018-05-09T19:19:15.295Z,4.00
2018-05-09T19:21:42.937Z,4.00
2018-05-09T19:24:11.047Z,4.47
2018-05-09T19:26:39.448Z,3.90
2018-05-09T19:29:08.261Z,4.10
2018-05-09T19:31:36.716Z,4.43
2018-05-09T19:34:05.995Z,4.57
2018-05-09T19:36:33.682Z,4.10
2018-05-09T19:39:01.347Z,3.90
2018-05-09T19:41:29.104Z,4.13
2018-05-09T19:43:56.724Z,3.77
2018-05-09T19:46:24.383Z,4.53
2018-05-09T19:48:52.180Z,4.17
2018-05-09T19:51:19.835Z,4.17
2018-05-09T19:53:48.094Z,4.10
2018-05-09T19:56:15.788Z,4.50
2018-05-09T19:58:43.454Z,4.67
2018-05-09T20:01:11.183Z,4.50
2018-05-09T20:03:38.798Z,5.37
2018-05-09T20:06:07.251Z,4.60
2018-05-09T20:08:35.011Z,4.47
2018-05-09T20:11:02.689Z,4.70
2018-05-09T20:13:30.367Z,4.60
2018-05-09T20:15:58.793Z,4.53
2018-05-09T20:18:27.235Z,4.80
2018-05-09T20:20:55.145Z,4.47
2018-05-09T20:23:22.859Z,4.67
2018-05-09T20:25:50.547Z,4.53
2018-05-09T20:28:18.342Z,4.93
2018-05-09T20:30:51.629Z,5.13
2018-05-09T20:33:19.272Z,5.47
2018-05-09T20:35:46.971Z,4.80
2018-05-09T20:38:14.829Z,5.30
2018-05-09T20:40:42.877Z,4.40
2018-05-09T20:43:10.524Z,3.90
2018-05-09T20:45:38.170Z,4.07
2018-05-09T20:48:06.544Z,3.97
2018-05-09T20:50:34.209Z,3.80
2018-05-09T20:53:02.611Z,3.97
2018-05-09T20:55:30.857Z,4.30
2018-05-09T20:57:58.528Z,4.40
2018-05-09T21:00:27.391Z,4.40
2018-05-09T21:02:55.165Z,5.10
2018-05-09T21:05:22.769Z,4.57
2018-05-09T21:07:57.506Z,4.47
2018-05-09T21:10:25.526Z,4.57
2018-05-09T21:12:53.337Z,4.40
2018-05-09T21:15:20.976Z,4.77
2018-05-09T21:17:49.404Z,4.70
2018-05-09T21:20:17.236Z,4.33
2018-05-09T21:22:44.840Z,4.40
2018-05-09T21:25:12.653Z,4.10
2018-05-09T21:27:40.304Z,3.80
2018-05-09T21:30:07.897Z,4.07
2018-05-09T21:32:36.281Z,4.30
2018-05-09T21:35:03.969Z,4.30
2018-05-09T21:37:31.610Z,4.13
2018-05-09T21:39:59.202Z,4.17
2018-05-09T21:42:26.837Z,4.47
2018-05-09T21:44:54.481Z,4.17
2018-05-09T21:47:22.086Z,4.23
2018-05-09T21:49:50.541Z,4.80
2018-05-09T21:52:18.142Z,4.57
2018-05-09T21:54:46.567Z,4.30
2018-05-09T21:57:14.235Z,4.40
2018-05-09T21:59:41.872Z,4.57
2018-05-09T22:02:09.470Z,4.80
2018-05-09T22:04:37.117Z,4.17
2018-05-09T22:07:04.770Z,4.27
2018-05-09T22:09:32.409Z,4.60
2018-05-09T22:12:00.063Z,4.40
2018-05-09T22:14:27.658Z,4.87
2018-05-09T22:16:55.305Z,4.67
2018-05-09T22:19:22.925Z,4.10
2018-05-09T22:21:51.488Z,4.50
2018-05-09T22:24:23.246Z,4.87
2018-05-09T22:26:51.706Z,4.63
2018-05-09T22:29:19.343Z,5.80
2018-05-09T22:31:47.018Z,4.73
2018-05-09T22:34:14.644Z,4.60
2018-05-09T22:36:43.071Z,5.53
2018-05-09T22:39:10.776Z,5.13
2018-05-09T22:41:38.460Z,5.10
2018-05-09T22:44:06.067Z,4.50
2018-05-09T22:46:33.727Z,4.47
2018-05-09T22:49:01.333Z,4.87
2018-05-09T22:51:29.746Z,5.30
2018-05-09T22:53:57.346Z,5.00
2018-05-09T22:56:25.015Z,4.87
2018-05-09T22:58:52.849Z,4.80
2018-05-09T23:01:20.473Z,4.97
2018-05-09T23:03:48.119Z,4.80
2018-05-09T23:06:16.493Z,5.10
2018-05-09T23:08:44.872Z,4.77
2018-05-09T23:11:13.301Z,4.93
2018-05-09T23:13:40.919Z,4.90
2018-05-09T23:16:09.332Z,5.13
2018-05-09T23:18:36.930Z,4.77
2018-05-09T23:21:04.570Z,4.80
2018-05-09T23:23:32.166Z,4.53
2018-05-09T23:26:00.538Z,4.50
2018-05-09T23:28:28.189Z,4.60
2018-05-09T23:30:55.831Z,4.60
2018-05-09T23:33:23.429Z,4.63
2018-05-09T23:35:51.842Z,4.57
2018-05-09T23:38:19.487Z,4.80
2018-05-09T23:40:47.863Z,4.60
2018-05-09T23:43:16.265Z,4.50
2018-05-09T23:45:43.882Z,4.53
2018-05-09T23:48:11.554Z,4.50
2018-05-09T23:50:40.028Z,4.30
2018-05-09T23:53:08.442Z,4.53
2018-05-09T23:55:36.092Z,4.30
2018-05-09T23:58:03.726Z,4.13
